TNCA/AUA METAR and TAF weather

Enter ICAO airport designator
Station Type Date Time Source
TNCA METAR 2019/04/20 18:00 UTC NOAA

TNCA 201800Z 10024KT 9999 SCT023 31/23 Q1013 NOSIG


Station Type Date Time Source
TNCA Decoded METAR 2019/04/20 18:00 UTC NOAA

Queen Beatrix Airport, Aruba (TNCA) 12-30N 070-01W 33M
Apr 20, 2019 - 02:00 PM EDT / 2019.04.20 1800 UTC
Wind: from the E (100 degrees) at 28 MPH (24 KT):0
Visibility: greater than 7 mile(s):0
Sky conditions: partly cloudy
Temperature: 87 F (31 C)
Heat index: 93.9 F (34.4 C):1
Dew Point: 73 F (23 C)
Relative Humidity: 62%
Pressure (altimeter): 29.91 in. Hg (1013 hPa)
ob: TNCA 201800Z 10024KT 9999 SCT023 31/23 Q1013 NOSIG
cycle: 18

Station Type Date Time Source
TNCA TAF 2019/04/20 18:03 UTC NOAA

TAF TNCA 201800Z 2018/2118 09022G33KT 9999 SCT020
TEMPO 2018/2118 BKN018

Example: see airport list